This is the latest recevied weather packets stored in our database for station/object OE3CJB-13. If no packets are shown the sender has not sent any weather packets the latest 10 day(s).
| Time | Temp. | Humidity | Pressure | Rain* | Wind** | Luminosity | Snow |
|---|---|---|---|---|---|---|---|
| 1788451267 | 26.11° C | 22% | 1183.3 hPa | 0 mm | - | - | - |
| 1788450334 | 26.11° C | 20% | 1184 hPa | 0 mm | - | - | - |
| 1788449421 | 26.67° C | 19% | 1184.7 hPa | 0 mm | - | - | - |
| 1788448558 | 26.67° C | 19% | 1186.2 hPa | 0 mm | - | - | - |
| 1788447647 | 26.67° C | 20% | 1187.2 hPa | 0 mm | - | - | - |
| 1788446734 | 26.67° C | 19% | 1188.9 hPa | 0 mm | - | - | - |
| 1788445821 | 26.67° C | 19% | 1188.1 hPa | 0 mm | - | - | - |
| 1788444958 | 27.22° C | 19% | 1188 hPa | 0 mm | - | - | - |
| 1788444048 | 27.22° C | 19% | 1187.2 hPa | 0 mm | - | - | - |
| 1788443134 | 27.22° C | 18% | 1188.1 hPa | 0 mm | - | - | - |
| 1788442271 | 27.78° C | 18% | 1187.4 hPa | 0 mm | - | - | - |
| 1788441358 | 27.78° C | 19% | 1186.5 hPa | 0 mm | - | - | - |
| 1788440447 | 27.78° C | 20% | 1186.7 hPa | 0 mm | - | - | - |
| 1788439533 | 27.78° C | 23% | 1185.9 hPa | 0 mm | - | - | - |
| 1788438621 | 27.78° C | 22% | 1186.8 hPa | 0 mm | - | - | - |
| 1788437758 | 27.78° C | 24% | 1186.8 hPa | 0 mm | - | - | - |
| 1788436847 | 27.22° C | 25% | 1187 hPa | 0 mm | - | - | - |
| 1788435938 | 26.67° C | 27% | 1185.6 hPa | 0 mm | - | - | - |
| 1788435026 | 26.11° C | 29% | 1185 hPa | 0 mm | - | - | - |
| 1788434157 | 26.11° C | 28% | 1185.2 hPa | 0 mm | - | - | - |
| 1788433267 | 26.67° C | 27% | 1185.1 hPa | 0 mm | - | - | - |
| 1788432334 | 26.11° C | 29% | 1184.3 hPa | 0 mm | - | - | - |
| 1788431421 | 26.11° C | 30% | 1184.6 hPa | 0 mm | - | - | - |
| 1788430558 | 25.56° C | 33% | 1184.8 hPa | 0 mm | - | - | - |
| 1788429647 | 25.56° C | 35% | 1183.1 hPa | 0 mm | - | - | - |
* Rain latest hour (hover to see other rain measurements)
** Current wind speed in m/s (hover to see current wind gust speed)